createdAt,value
2019-02-26T00:05:23.785Z,2.70
2019-02-26T00:20:33.281Z,3.00
2019-02-26T00:35:39.891Z,3.20
2019-02-26T00:50:44.667Z,3.40
2019-02-26T01:06:02.041Z,3.40
2019-02-26T01:21:08.505Z,3.40
2019-02-26T01:36:16.097Z,3.30
2019-02-26T01:51:22.307Z,3.80
2019-02-26T02:06:30.366Z,3.90
2019-02-26T02:21:38.061Z,4.30
2019-02-26T02:36:43.553Z,4.80
2019-02-26T02:51:49.142Z,5.40
2019-02-26T03:06:55.571Z,5.80
2019-02-26T03:22:02.422Z,6.10
2019-02-26T03:37:08.239Z,6.30
2019-02-26T03:52:15.855Z,6.30
2019-02-26T04:07:22.861Z,6.40
2019-02-26T04:22:31.099Z,6.10
2019-02-26T04:37:38.572Z,6.00
2019-02-26T04:52:59.071Z,6.30
2019-02-26T05:08:04.219Z,6.30
2019-02-26T05:23:10.160Z,6.20
2019-02-26T05:38:16.375Z,6.10
2019-02-26T05:53:21.419Z,5.90
2019-02-26T06:08:29.588Z,5.90
2019-02-26T06:23:34.508Z,5.80
2019-02-26T06:38:40.291Z,5.50
2019-02-26T06:53:49.234Z,5.40
2019-02-26T07:08:53.494Z,5.70
2019-02-26T07:23:58.812Z,6.00
2019-02-26T07:39:20.099Z,6.10
2019-02-26T07:54:25.359Z,6.30
2019-02-26T08:09:32.864Z,6.60
2019-02-26T08:24:38.677Z,7.00
2019-02-26T08:39:57.774Z,7.50
2019-02-26T08:55:03.871Z,8.20
2019-02-26T09:10:28.541Z,8.80
2019-02-26T09:25:34.103Z,9.40
2019-02-26T09:40:39.378Z,9.90
2019-02-26T09:55:44.393Z,10.50
2019-02-26T10:10:51.388Z,10.90
2019-02-26T10:25:57.802Z,11.50
2019-02-26T10:41:05.146Z,11.70
2019-02-26T10:56:10.548Z,11.80
2019-02-26T11:11:16.537Z,11.80
2019-02-26T11:26:22.634Z,12.10
2019-02-26T11:41:39.516Z,12.40
2019-02-26T11:56:47.172Z,12.20
2019-02-26T12:11:51.473Z,12.00
2019-02-26T12:26:58.579Z,12.60
2019-02-26T12:42:03.985Z,12.70
2019-02-26T12:57:08.992Z,12.90
2019-02-26T13:12:16.958Z,13.00
2019-02-26T13:27:21.349Z,12.90
2019-02-26T13:42:26.623Z,12.90
2019-02-26T13:57:32.059Z,13.00
2019-02-26T14:12:37.201Z,13.20
2019-02-26T14:27:43.395Z,12.90
2019-02-26T14:42:48.904Z,12.80
2019-02-26T14:57:53.817Z,12.40
2019-02-26T15:12:59.463Z,12.20
2019-02-26T15:28:05.642Z,12.00
2019-02-26T15:43:12.674Z,11.70
2019-02-26T15:58:17.865Z,11.20
2019-02-26T16:13:23.059Z,10.60
2019-02-26T16:28:28.698Z,10.10
2019-02-26T16:43:33.948Z,9.50
2019-02-26T16:58:39.248Z,9.10
2019-02-26T17:13:44.464Z,8.70
2019-02-26T17:28:50.728Z,8.30
2019-02-26T17:44:15.161Z,7.90
2019-02-26T17:59:20.514Z,7.50
2019-02-26T18:14:26.151Z,7.40
2019-02-26T18:29:31.561Z,7.00
2019-02-26T18:44:37.340Z,6.10
2019-02-26T18:59:54.683Z,5.40
2019-02-26T19:15:12.580Z,5.00
2019-02-26T19:30:21.576Z,4.60
2019-02-26T19:45:38.594Z,4.20
2019-02-26T20:00:56.094Z,4.00
2019-02-26T20:16:01.269Z,3.90
2019-02-26T20:31:21.475Z,3.40
2019-02-26T20:46:26.512Z,3.60
2019-02-26T21:01:32.514Z,3.70
2019-02-26T21:16:38.269Z,3.60
2019-02-26T21:31:43.907Z,3.60
2019-02-26T21:46:49.394Z,3.60
2019-02-26T22:01:54.436Z,3.50
2019-02-26T22:17:11.218Z,3.40
2019-02-26T22:32:27.963Z,3.10
2019-02-26T22:47:33.074Z,2.90
2019-02-26T23:02:40.620Z,2.40
2019-02-26T23:17:46.766Z,1.80
2019-02-26T23:33:04.098Z,1.70
2019-02-26T23:48:21.636Z,1.80
